Station info - map view · info · telemetry · weather · raw · status · beacons · messages · bulletins · browse · moving · my account
Callsign, ship name or locator: Clear       
It is possible to search using wildcards (*?) after a prefix. Example: OH*
APRS station DD3DH-9 - show graphs
Map loading...
Mic-E message: Off duty
Location: 52°23.65' N 9°50.65' E - locator JO42WJ14HO - show map - static map
5.0 miles East bearing 71° from Hannover, Lower Saxony, Germany [?]
7.5 miles Northeast bearing 43° from Hemmingen, Lower Saxony, Germany
63.9 miles Southeast bearing 137° from Bremen, Bremen, Germany
Last position: 2018-10-13 14:13:54 EDT (6d 7h45m ago)
2018-10-13 20:13:54 CEST local time at Hannover, Germany [?]
Altitude: 200 ft
Position ambiguous: Precision reduced at transmitter by 1 digits, position resolution approximately 202.5 yards.
Course: 125°
Speed: 10 MPH
Device: Yaesu: FTM-100D (rig)
Last path: DD3DH-9>URRSVL via WIDE1-1,qAR,DB0TVH-10 (good)
Positions stored: 873
Stations near current position of DD3DH-9 - show more
callsign distance last heard - EDT      callsign distance last heard - EDT
DO5PMB-100.3 miles 241°2018-10-17 16:48:12 DO5PMB-50.3 miles 241°2018-10-18 00:28:49
DO5PMB0.3 miles 240°2018-10-08 08:56:54 PS-DO1OAJ0.5 miles 253°2018-10-19 21:00:43
DC7OS0.8 miles 219°2018-10-19 04:12:18 DL6OAH B1.3 miles 269°2018-10-13 13:57:06
DL6OAH-B1.3 miles 269°2018-10-13 13:57:16 DC7OS-101.3 miles 252°2018-10-18 03:33:24
DF2OX-ios1.3 miles 217°2018-10-11 06:27:53 DL6OAH-71.4 miles 272°2018-10-11 12:10:19
DL6OAH-51.5 miles 271°2018-10-14 13:23:10 DL6OAH-41.5 miles 271°2018-10-13 03:19:06
DO6MJ-92.1 miles 351°2018-09-22 05:07:16 DL5BBH-92.3 miles 285°2018-10-18 09:36:48
N23107072.3 miles 289°2018-10-16 03:36:41 PS-DK5PF2.4 miles 174°2018-10-08 13:00:53
DK5PF-DP2.4 miles 174°2018-10-18 13:58:36 DL5WB-93.6 miles 254°2018-09-30 05:05:23
DN7SAX-93.7 miles 215°2018-10-19 13:27:01 DL4AH3.9 miles 212°2018-10-17 08:22:59
Stations which heard DD3DH-9 directly on radio –
callsign pkts first heard - EDT last heard longest (tx => rx) longest at - EDT
DB0KX-2 3 2018-10-13 09:55:28 2018-10-13 10:29:57 JO31OD > JO31EG 38.0 miles 286° 2018-10-13 10:29:57
DB0LJ 2 2018-10-13 08:19:23 2018-10-13 08:34:54 JO30OF > JO30QJ 11.3 miles 28° 2018-10-13 08:19:23
DB0END 2 2018-10-13 11:00:06 2018-10-13 11:10:06 JO31TL > JO31PH 18.5 miles 227° 2018-10-13 11:10:06
DM2HB 9 2018-10-13 11:30:05 2018-10-13 12:35:13 JO41HX > JO41EQ 21.4 miles 207° 2018-10-13 12:35:13
DB0RHB 3 2018-10-13 07:52:21 2018-10-13 08:59:55 JO30OF > JO30LN 26.4 miles 331° 2018-10-13 08:14:21
DB0KOE 4 2018-10-13 09:25:27 2018-10-13 10:24:22 JO31ND > JO30LW 16.7 miles 212° 2018-10-13 10:24:22
DK0HQ 1 2018-10-13 09:15:27 2018-10-13 09:15:27 JO30NS > JO30NR 3.0 miles 147° 2018-10-13 09:15:27
DB0DRI 1 2018-10-13 13:29:53 2018-10-13 13:29:53 JO42OF > JO41MS 32.2 miles 191° 2018-10-13 13:29:53
DL8KZ 10 2018-10-13 09:09:54 2018-10-13 10:34:57 JO31OE > JO30PQ 34.2 miles 177° 2018-10-13 10:34:57
DB0HAT 3 2018-10-13 11:30:07 2018-10-13 11:50:06 JO41FO > JO31VQ 29.1 miles 282° 2018-10-13 11:50:06
DB0UHC 1 2018-10-13 09:59:59 2018-10-13 09:59:59 JO31OD > JO31HB 26.0 miles 258° 2018-10-13 09:59:59
DB0ROD 1 2018-10-13 13:37:59 2018-10-13 13:37:59 JO42PG > JO42QH 5.4 miles 56° 2018-10-13 13:37:59
DL6PI 2 2018-10-13 10:55:05 2018-10-13 11:00:05 JO31RJ > JO31QK 6.7 miles 276° 2018-10-13 11:00:05
DB0NLH 12 2018-10-13 11:10:05 2018-10-13 13:39:57 JO31TL > JO42DC 51.3 miles 33° 2018-10-13 11:10:05
DF4DR-10 1 2018-10-13 11:15:05 2018-10-13 11:15:05 JO31UM > JO31SM 7.4 miles 268° 2018-10-13 11:15:05
DB0ENL-10 1 2018-10-13 10:50:05 2018-10-13 10:50:05 JO31PI > JO31QG 3.3 miles 158° 2018-10-13 10:50:05
DO2JMG 1 2018-10-13 12:40:13 2018-10-13 12:40:13 JO42HA > JO42EB 10.5 miles 289° 2018-10-13 12:40:13
DB0UT-10 1 2018-10-13 08:19:54 2018-10-13 08:19:54 JO30OF > JN39NR 34.4 miles 187° 2018-10-13 08:19:54
DG4DAA-13 2 2018-10-13 11:20:05 2018-10-13 11:35:05 JO31VM > JO31XO 9.5 miles 47° 2018-10-13 11:20:05
DB0TVH-10 2 2018-10-13 13:44:57 2018-10-13 14:13:54 JO42RI > JO42UJ 12.8 miles 85° 2018-10-13 13:44:57
DB0XO 1 2018-10-13 09:45:27 2018-10-13 09:45:27 JO31MB > JO30IW 16.3 miles 245° 2018-10-13 09:45:27
DJ5KP-10 2 2018-10-13 09:14:54 2018-10-13 09:20:27 JO30NS > JO30OU 8.3 miles 43° 2018-10-13 09:14:54
DB0BI-10 1 2018-10-13 12:51:17 2018-10-13 12:51:17 JO42IC > JO42FA 10.9 miles 244° 2018-10-13 12:51:17
DK4DAX-1 2 2018-10-13 09:35:27 2018-10-13 09:40:27 JO31MA > JO30LW 6.1 miles 195° 2018-10-13 09:40:27
DF2HS-10 4 2018-10-13 12:20:05 2018-10-13 13:17:55 JO41IT > JO42IH 33.7 miles 0° 2018-10-13 12:20:05
DH6PF-1 2 2018-10-13 08:39:54 2018-10-13 08:49:54 JO30OJ > JO30PO 14.5 miles 3° 2018-10-13 08:39:54
DB0HSK 2 2018-10-13 11:05:05 2018-10-13 11:40:05 JO31SK > JO41DJ 31.8 miles 98° 2018-10-13 11:05:05

Only position packets which were originated by the station are shown here. The range statistics show some extra long hops, because some digipeaters do not correctly add themselves to the digipeater path. Please check the raw packets.
About this site
This page shows real-time information collected from the Automatic Position Reporting System Internet network (APRS-IS). APRS is used by amateur (ham) radio operators to transmit real-time position information, weather data, telemetry and messages over the radio. A vehicle equipped with a GPS receiver, a VHF transmitter or HF transceiver and a small computer device called a tracker transmits it's location, speed and course in a small data packet, which is then received by a nearby iGate receiving site which forwards the packet on the Internet. Systems connected to the Internet can send information on the APRS-IS without a radio transmitter, or collect and display information transmitted anywhere in the world.
FAQ · Blog · Discussion group · Linking to aprs.fi · AIS sites · Service status · Database statistics · Advertising on aprs.fi · Technical details · API · Change log · Planned changes · Credits and thanks · Terms Of Service · iPhone/iPad APRS